Time;durP1;ratioP1;P1;durP2;ratioP2;P2;SDS_P1;SDS_P2;PMS_P1;PMS_P2;Temp;Humidity;BMP_temperature;BMP_pressure;BME280_temperature;BME280_humidity;BME280_pressure;Samples;Min_cycle;Max_cycle;Signal;HPM_P1;HPM_P2
2024/02/08 00:02:25;;;;;;;25.83;12.93;;;;;;;2.86;82.05;97561.34;5047668;28;21687;-77
2024/02/08 00:04:50;;;;;;;17.00;11.98;;;;;;;2.83;82.21;97556.53;5030126;28;20576;-76
2024/02/08 00:07:16;;;;;;;17.27;11.13;;;;;;;2.94;82.30;97573.38;5045032;28;20028;-76
2024/02/08 00:09:42;;;;;;;15.25;9.63;;;;;;;2.79;82.15;97571.22;5048968;28;20514;-76
2024/02/08 00:12:08;;;;;;;21.73;10.60;;;;;;;2.68;83.25;97568.56;5042560;28;20029;-75
2024/02/08 00:14:34;;;;;;;20.88;10.63;;;;;;;2.76;83.07;97563.75;5044302;28;20033;-76
2024/02/08 00:16:59;;;;;;;19.60;11.15;;;;;;;2.78;82.69;97561.69;5044114;28;20041;-76
2024/02/08 00:19:25;;;;;;;25.35;11.15;;;;;;;2.87;82.25;97556.88;5043362;28;20708;-76
2024/02/08 00:21:50;;;;;;;18.75;10.13;;;;;;;2.90;82.33;97556.44;5046410;28;20033;-76
2024/02/08 00:24:16;;;;;;;16.65;9.90;;;;;;;2.81;82.57;97557.81;5047740;28;20493;-75
2024/02/08 00:26:41;;;;;;;18.00;9.95;;;;;;;2.87;82.04;97562.94;5044968;28;20072;-76
2024/02/08 00:29:08;;;;;;;17.70;10.05;;;;;;;2.86;82.39;97555.28;5045867;28;20375;-77
2024/02/08 00:31:33;;;;;;;17.75;10.85;;;;;;;2.80;83.17;97551.72;5047089;28;20029;-76
2024/02/08 00:33:58;;;;;;;15.50;10.25;;;;;;;2.87;82.46;97556.88;5049688;28;20619;-75
2024/02/08 00:36:24;;;;;;;18.42;9.45;;;;;;;2.76;82.74;97541.88;5044565;28;20029;-76
2024/02/08 00:38:49;;;;;;;19.58;10.35;;;;;;;2.68;82.83;97544.88;5043427;28;20025;-76
2024/02/08 00:41:14;;;;;;;18.60;9.93;;;;;;;2.72;82.91;97538.09;5048231;28;20056;-77
2024/02/08 00:43:40;;;;;;;16.77;10.15;;;;;;;2.81;82.78;97537.53;5051968;28;20513;-76
2024/02/08 00:46:06;;;;;;;18.98;10.40;;;;;;;2.72;82.75;97531.00;5048406;28;20397;-76
2024/02/08 00:48:31;;;;;;;21.15;11.25;;;;;;;2.79;82.68;97536.97;5047079;28;20047;-76
2024/02/08 00:50:57;;;;;;;19.25;11.25;;;;;;;2.84;82.57;97523.09;5042819;28;20044;-76
2024/02/08 00:53:22;;;;;;;16.80;10.02;;;;;;;2.81;82.46;97502.47;5048068;28;20040;-76
2024/02/08 00:55:49;;;;;;;24.48;10.27;;;;;;;2.95;82.16;97523.06;5044188;28;20025;-76
2024/02/08 00:58:15;;;;;;;16.30;10.25;;;;;;;2.92;82.38;97518.28;5046473;28;20028;-76
2024/02/08 01:00:47;;;;;;;17.80;9.80;;;;;;;2.91;81.88;97514.03;5042927;28;20158;-76
2024/02/08 01:03:13;;;;;;;23.95;12.60;;;;;;;2.88;82.56;97513.69;5044107;28;20026;-77
2024/02/08 01:05:39;;;;;;;23.48;10.10;;;;;;;2.94;82.46;97518.84;5046798;28;20021;-76
2024/02/08 01:08:04;;;;;;;17.48;10.25;;;;;;;2.88;82.72;97522.38;5041766;28;20045;-75
2024/02/08 01:10:30;;;;;;;21.73;9.85;;;;;;;2.84;83.02;97515.19;5043402;28;20037;-75
2024/02/08 01:12:55;;;;;;;24.52;9.63;;;;;;;2.92;82.85;97512.19;5040243;28;20394;-75
2024/02/08 01:15:21;;;;;;;19.88;10.00;;;;;;;3.04;82.61;97511.13;5045566;28;20112;-75
2024/02/08 01:17:51;;;;;;;21.67;10.57;;;;;;;3.15;82.63;97509.50;5045262;28;20033;-76
2024/02/08 01:20:21;;;;;;;18.48;9.77;;;;;;;2.98;82.42;97493.63;5049564;28;20084;-77
2024/02/08 01:22:48;;;;;;;20.23;10.38;;;;;;;3.05;83.16;97511.94;5046727;28;20044;-75
2024/02/08 01:25:14;;;;;;;20.08;9.68;;;;;;;3.13;83.50;97516.84;5046809;28;20048;-75
2024/02/08 01:27:40;;;;;;;21.40;10.02;;;;;;;3.13;83.43;97518.66;5047333;28;20028;-77
2024/02/08 01:30:08;;;;;;;19.08;11.05;;;;;;;3.13;82.94;97510.75;5051087;28;20040;-76
2024/02/08 01:32:33;;;;;;;21.58;10.65;;;;;;;3.13;83.05;97500.22;5047276;28;20037;-76
2024/02/08 01:34:58;;;;;;;24.23;10.30;;;;;;;3.22;83.28;97527.81;5047593;28;20039;-76
2024/02/08 01:37:24;;;;;;;22.63;11.05;;;;;;;3.12;83.70;97527.63;5051191;28;20040;-76
2024/02/08 01:39:50;;;;;;;18.85;10.80;;;;;;;3.16;83.61;97523.47;5051088;28;20037;-76
2024/02/08 01:42:16;;;;;;;20.17;10.20;;;;;;;3.24;83.62;97515.19;5052515;28;20035;-76
2024/02/08 01:44:55;;;;;;;16.60;10.95;;;;;;;3.29;83.41;97516.09;5044742;28;20033;-76
2024/02/08 01:47:21;;;;;;;21.45;12.00;;;;;;;3.25;83.26;97508.91;5048155;28;20494;-76
2024/02/08 01:49:47;;;;;;;20.50;11.43;;;;;;;3.12;83.62;97503.91;5049379;28;20044;-76
2024/02/08 01:52:18;;;;;;;24.10;12.38;;;;;;;3.22;83.83;97512.00;5047165;28;20025;-75
2024/02/08 01:54:48;;;;;;;26.40;11.70;;;;;;;3.27;83.89;97515.53;5051629;28;20029;-75
2024/02/08 01:57:14;;;;;;;22.92;11.18;;;;;;;3.28;83.24;97511.84;5050366;28;20370;-75
2024/02/08 01:59:44;;;;;;;28.73;14.23;;;;;;;3.25;84.14;97511.53;5049284;28;20443;-76
2024/02/08 02:02:10;;;;;;;23.60;11.85;;;;;;;3.28;83.90;97506.59;5049966;28;20032;-76
2024/02/08 02:04:36;;;;;;;22.60;11.90;;;;;;;3.32;83.86;97507.72;5052045;28;20072;-77
2024/02/08 02:07:03;;;;;;;28.60;11.75;;;;;;;3.25;83.76;97501.00;5050714;28;20053;-77
2024/02/08 02:09:30;;;;;;;29.35;12.02;;;;;;;3.13;84.07;97489.66;5049684;28;20033;-77
2024/02/08 02:12:16;;;;;;;21.17;11.20;;;;;;;3.18;83.83;97506.41;5049113;28;20056;-76
2024/02/08 02:14:44;;;;;;;29.02;11.10;;;;;;;3.28;84.01;97517.13;5050890;28;20159;-77
2024/02/08 02:17:25;;;;;;;23.98;11.85;;;;;;;3.31;83.48;97521.94;5051431;28;20029;-76
2024/02/08 02:19:50;;;;;;;22.20;11.77;;;;;;;3.33;83.44;97519.88;5050375;28;20114;-77
2024/02/08 02:22:19;;;;;;;19.98;11.82;;;;;;;3.12;83.84;97507.34;5046872;28;20071;-76
2024/02/08 02:24:48;;;;;;;21.52;11.10;;;;;;;3.17;84.05;97517.19;5047915;28;20386;-77
2024/02/08 02:27:15;;;;;;;24.48;12.90;;;;;;;3.22;84.75;97517.28;5047964;28;20162;-75
2024/02/08 02:29:44;;;;;;;25.13;11.10;;;;;;;3.17;84.19;97517.97;5049199;28;20044;-76
2024/02/08 02:32:15;;;;;;;24.63;12.05;;;;;;;3.26;83.78;97513.94;5052116;28;20037;-76
2024/02/08 02:34:42;;;;;;;21.42;12.25;;;;;;;3.26;83.79;97521.03;5052009;28;20050;-77
2024/02/08 02:37:07;;;;;;;20.40;11.63;;;;;;;3.16;84.47;97524.28;5049824;28;20513;-76
2024/02/08 02:39:33;;;;;;;21.88;11.85;;;;;;;3.15;84.23;97522.69;5050206;28;20037;-76
2024/02/08 02:41:59;;;;;;;26.13;12.82;;;;;;;3.00;85.32;97506.56;5049585;28;20029;-76
2024/02/08 02:44:27;;;;;;;26.15;14.88;;;;;;;2.54;85.20;97522.41;5052514;28;20073;-76
2024/02/08 02:46:53;;;;;;;28.20;15.40;;;;;;;2.08;87.38;97523.19;5053126;28;20485;-76
2024/02/08 02:49:20;;;;;;;44.20;17.42;;;;;;;1.44;89.84;97530.00;5047951;28;20607;-76
2024/02/08 02:51:48;;;;;;;30.85;16.45;;;;;;;2.06;90.80;97525.25;5030634;28;20565;-76
2024/02/08 02:54:19;;;;;;;32.58;15.73;;;;;;;2.38;89.03;97516.00;5050576;28;20025;-75
2024/02/08 02:56:50;;;;;;;28.73;16.33;;;;;;;2.05;89.20;97505.25;5050593;28;20024;-77
2024/02/08 02:59:16;;;;;;;31.80;18.33;;;;;;;2.24;88.93;97525.97;5048808;28;20048;-76
2024/02/08 03:01:49;;;;;;;51.15;20.70;;;;;;;1.67;90.00;97518.78;5046237;28;20039;-76
2024/02/08 03:04:16;;;;;;;39.05;19.48;;;;;;;1.45;91.87;97510.59;5048359;28;20036;-76
2024/02/08 03:06:43;;;;;;;46.35;22.23;;;;;;;1.28;92.47;97519.31;5048706;28;20033;-76
2024/02/08 03:09:15;;;;;;;51.25;21.25;;;;;;;1.20;93.23;97512.53;5045201;28;20112;-76
2024/02/08 03:11:45;;;;;;;38.22;20.88;;;;;;;1.57;93.76;97513.28;5047320;28;20382;-77
2024/02/08 03:14:11;;;;;;;53.88;19.65;;;;;;;1.35;93.10;97520.84;5049570;28;20033;-76
2024/02/08 03:16:37;;;;;;;52.42;22.70;;;;;;;1.30;93.62;97510.19;5049945;28;20147;-77
2024/02/08 03:19:05;;;;;;;47.92;20.80;;;;;;;1.76;93.76;97514.00;5050512;28;20029;-77
2024/02/08 03:21:35;;;;;;;37.90;19.38;;;;;;;2.45;90.22;97495.63;5046795;28;20160;-77
2024/02/08 03:24:07;;;;;;;40.90;17.83;;;;;;;2.55;88.65;97511.69;5045679;28;20101;-77
2024/02/08 03:26:33;;;;;;;33.03;16.45;;;;;;;2.51;87.62;97507.88;5048549;28;20074;-77
2024/02/08 03:28:58;;;;;;;33.28;16.67;;;;;;;2.82;87.87;97501.44;5047396;28;20112;-77
2024/02/08 03:31:26;;;;;;;36.40;16.73;;;;;;;3.01;86.61;97506.31;5042567;28;20033;-77
2024/02/08 03:33:53;;;;;;;31.02;15.48;;;;;;;2.93;86.20;97498.78;5030491;28;20040;-76
2024/02/08 03:36:23;;;;;;;30.77;15.75;;;;;;;3.01;86.08;97498.41;5046865;28;20037;-76
2024/02/08 03:38:52;;;;;;;32.88;14.95;;;;;;;3.07;86.01;97495.88;5043957;28;20134;-76
2024/02/08 03:41:18;;;;;;;38.03;15.50;;;;;;;3.00;85.63;97498.66;5041588;28;20485;-76
2024/02/08 03:43:47;;;;;;;30.85;15.88;;;;;;;3.14;85.14;97494.72;5047500;28;20112;-77
2024/02/08 03:46:14;;;;;;;30.98;14.93;;;;;;;3.21;85.59;97490.09;5031440;28;20037;-76
2024/02/08 03:48:45;;;;;;;30.70;14.07;;;;;;;3.25;85.19;97485.19;5046682;28;20032;-76
2024/02/08 03:51:11;;;;;;;37.33;14.55;;;;;;;3.03;85.12;97480.56;5044948;28;20031;-75
2024/02/08 03:53:36;;;;;;;25.90;14.80;;;;;;;3.11;85.11;97482.00;5048122;28;20373;-75
2024/02/08 03:56:02;;;;;;;31.65;16.73;;;;;;;3.25;85.09;97479.91;5046810;28;20029;-76
2024/02/08 03:58:27;;;;;;;28.98;14.45;;;;;;;3.24;85.02;97486.19;5046695;28;20029;-76
2024/02/08 04:00:53;;;;;;;34.28;15.70;;;;;;;3.24;85.18;97481.72;5044390;28;21048;-75
2024/02/08 04:06:49;;;;;;;33.95;17.30;;;;;;;3.31;84.18;97489.50;4965042;28;20047;-75
2024/02/08 04:09:33;;;;;;;36.13;15.80;;;;;;;3.12;85.57;97501.25;5047686;28;20574;-75
2024/02/08 04:55:45;;;;;;;39.08;16.95;;;;;;;1.36;95.61;97469.88;5031807;28;20044;-76
2024/02/08 04:58:11;;;;;;;33.97;16.13;;;;;;;2.40;92.52;97473.69;5050256;28;20124;-76
2024/02/08 05:00:37;;;;;;;33.35;14.98;;;;;;;2.41;89.33;97473.44;5046648;28;20043;-76
2024/02/08 05:03:03;;;;;;;29.73;14.75;;;;;;;2.48;89.96;97463.59;5051437;28;20186;-77
2024/02/08 05:05:28;;;;;;;24.75;14.75;;;;;;;2.96;87.71;97471.97;5053523;28;20482;-76
2024/02/08 05:07:54;;;;;;;22.33;12.48;;;;;;;2.95;87.58;97469.56;5049620;28;20044;-76
2024/02/08 05:10:19;;;;;;;26.67;13.95;;;;;;;3.20;85.88;97466.63;5049884;28;20036;-75
2024/02/08 05:12:47;;;;;;;25.98;13.63;;;;;;;3.00;86.25;97467.03;5052552;28;20029;-75
2024/02/08 05:15:13;;;;;;;27.40;13.50;;;;;;;3.12;86.47;97467.00;5052274;28;20401;-76
2024/02/08 05:17:40;;;;;;;29.77;14.80;;;;;;;3.13;85.44;97472.03;5051693;28;20036;-75
2024/02/08 05:20:11;;;;;;;26.60;14.00;;;;;;;2.36;86.41;97454.88;5034704;28;20029;-75
2024/02/08 05:22:38;;;;;;;28.00;14.45;;;;;;;3.12;85.98;97467.81;5048441;28;20029;-76
2024/02/08 05:25:10;;;;;;;23.95;14.38;;;;;;;3.07;86.02;97466.91;5045488;28;20096;-76
2024/02/08 05:27:35;;;;;;;33.85;14.48;;;;;;;3.25;85.13;97464.91;5049134;28;20040;-76
2024/02/08 05:30:01;;;;;;;28.27;13.95;;;;;;;3.33;85.04;97464.50;5052532;28;20036;-75
2024/02/08 05:32:27;;;;;;;23.83;13.13;;;;;;;3.29;84.66;97471.28;5053358;28;20029;-75
2024/02/08 05:34:52;;;;;;;26.48;13.32;;;;;;;3.32;84.58;97462.88;5052580;28;20024;-75
2024/02/08 05:37:18;;;;;;;27.67;14.02;;;;;;;2.66;86.39;97460.81;5049252;28;20371;-74
2024/02/08 05:39:46;;;;;;;34.15;14.32;;;;;;;3.18;85.83;97468.69;5048898;28;20036;-75
2024/02/08 05:42:14;;;;;;;32.80;15.13;;;;;;;2.63;86.09;97471.00;5049005;28;20124;-75
2024/02/08 05:44:41;;;;;;;28.30;14.88;;;;;;;1.67;89.10;97476.69;5050394;28;20034;-75
2024/02/08 05:47:06;;;;;;;38.55;18.27;;;;;;;1.74;91.50;97482.66;5053715;28;20123;-75
2024/02/08 05:49:32;;;;;;;29.13;15.90;;;;;;;2.66;88.99;97457.38;5050305;28;20539;-75
2024/02/08 05:52:05;;;;;;;30.42;16.35;;;;;;;3.05;86.28;97464.50;5051570;28;20033;-75
2024/02/08 05:54:36;;;;;;;31.52;14.40;;;;;;;3.04;85.71;97447.88;5047802;28;20067;-76
2024/02/08 05:57:03;;;;;;;34.25;15.13;;;;;;;3.27;85.52;97451.47;5053184;28;20040;-75
2024/02/08 05:59:32;;;;;;;31.48;15.05;;;;;;;3.30;84.56;97458.91;5045599;28;20029;-76
2024/02/08 06:02:05;;;;;;;33.75;13.82;;;;;;;3.35;84.66;97453.72;5053570;28;20057;-75
2024/02/08 06:04:36;;;;;;;24.23;13.07;;;;;;;3.36;84.34;97450.06;5053179;28;20439;-75
2024/02/08 06:07:05;;;;;;;22.15;14.48;;;;;;;3.41;84.16;97447.47;5053387;28;20122;-75
2024/02/08 06:09:47;;;;;;;22.08;12.70;;;;;;;3.42;83.84;97451.75;5053505;28;20113;-75
2024/02/08 06:15:14;;;;;;;22.90;12.35;;;;;;;3.08;85.80;97455.34;5047472;28;20120;-76
2024/02/08 06:17:45;;;;;;;23.20;12.50;;;;;;;2.74;86.22;97455.19;5053656;28;20091;-76
2024/02/08 06:20:14;;;;;;;34.58;18.65;;;;;;;2.27;86.93;97458.94;5053717;28;20052;-77
2024/02/08 06:22:43;;;;;;;33.00;16.20;;;;;;;1.59;89.71;97463.06;5053474;28;20397;-77
2024/02/08 06:25:09;;;;;;;29.67;15.75;;;;;;;2.09;91.13;97459.03;5053438;28;20040;-77
2024/02/08 06:27:41;;;;;;;31.38;17.80;;;;;;;2.88;87.73;97427.53;5050412;28;20024;-76
2024/02/08 06:30:09;;;;;;;29.45;16.13;;;;;;;3.19;85.63;97436.03;5052344;28;20043;-76
2024/02/08 06:32:43;;;;;;;29.05;14.55;;;;;;;2.94;85.78;97429.25;5053084;28;20037;-76
2024/02/08 06:35:13;;;;;;;25.08;14.02;;;;;;;3.28;84.66;97432.75;5053011;28;20024;-76
2024/02/08 06:37:46;;;;;;;23.48;15.02;;;;;;;3.41;84.28;97434.31;5053174;28;20025;-76
2024/02/08 06:40:21;;;;;;;23.77;14.25;;;;;;;3.44;83.86;97428.56;5050627;28;20032;-76
2024/02/08 07:37:17;;;;;;;29.38;15.88;;;;;;;3.36;83.97;97477.22;4985293;28;20042;-76
2024/02/08 07:39:46;;;;;;;29.15;17.65;;;;;;;3.53;83.94;97478.06;4984157;28;20031;-77
2024/02/08 07:42:29;;;;;;;30.27;15.88;;;;;;;3.64;83.63;97476.41;5014017;28;20048;-76
2024/02/08 07:44:55;;;;;;;26.10;14.05;;;;;;;3.42;84.23;97471.00;5043700;28;20496;-75
2024/02/08 07:47:24;;;;;;;28.33;15.25;;;;;;;3.54;83.68;97473.56;5051169;28;20036;-77
2024/02/08 07:50:04;;;;;;;26.75;15.88;;;;;;;3.49;84.20;97487.50;5050989;28;20033;-75
2024/02/08 07:52:33;;;;;;;25.27;13.50;;;;;;;3.42;84.59;97473.63;5049909;28;20125;-77
2024/02/08 07:55:14;;;;;;;26.88;15.10;;;;;;;3.64;83.85;97474.56;5050801;28;20135;-76
2024/02/08 07:57:48;;;;;;;26.10;14.45;;;;;;;3.42;84.49;97462.28;5051113;28;20449;-78
2024/02/08 08:03:00;;;;;;;33.05;15.32;;;;;;;3.60;84.30;97480.56;5058013;28;20112;-76
2024/02/08 08:05:31;;;;;;;28.15;13.07;;;;;;;3.47;84.44;97491.41;5049563;28;20033;-76
2024/02/08 08:08:02;;;;;;;28.02;15.80;;;;;;;3.39;84.99;97482.00;5050400;28;20119;-76
2024/02/08 08:10:33;;;;;;;25.88;14.10;;;;;;;3.46;84.54;97480.03;5050407;28;20037;-75
2024/02/08 08:13:06;;;;;;;25.83;14.90;;;;;;;3.64;84.29;97481.66;5050585;28;20104;-76
2024/02/08 08:15:49;;;;;;;26.58;14.85;;;;;;;3.58;83.52;97472.06;5050506;28;20123;-76
2024/02/08 08:18:23;;;;;;;26.08;14.57;;;;;;;3.72;83.42;97476.00;5043013;28;20033;-76
2024/02/08 08:20:56;;;;;;;31.50;14.82;;;;;;;3.86;82.94;97482.59;5058654;28;20028;-76
2024/02/08 08:23:25;;;;;;;25.38;15.23;;;;;;;3.80;82.80;97473.75;5058806;28;20036;-76
2024/02/08 08:28:40;;;;;;;30.13;15.43;;;;;;;3.83;82.92;97456.66;5065242;28;20090;-76
2024/02/08 08:33:58;;;;;;;35.20;17.27;;;;;;;3.70;84.34;97449.88;5050329;28;20416;-76
2024/02/08 08:36:28;;;;;;;31.90;16.80;;;;;;;3.86;83.59;97453.56;5048552;28;20595;-76
2024/02/08 08:39:29;;;;;;;27.85;16.13;;;;;;;3.50;84.92;97436.31;5058169;28;20052;-76
2024/02/08 08:41:47;;;;;;;34.22;15.60;;;;;;;3.68;84.87;97448.50;5049882;28;20791;-76
2024/02/08 08:44:15;;;;;;;29.02;15.98;;;;;;;3.95;83.15;97443.41;5050521;28;20037;-76
2024/02/08 08:46:41;;;;;;;32.25;16.33;;;;;;;3.99;82.98;97447.16;5031774;28;20041;-76
2024/02/08 08:49:08;;;;;;;26.13;15.20;;;;;;;4.03;83.32;97442.97;5032856;28;20078;-75
2024/02/08 08:51:33;;;;;;;31.85;14.85;;;;;;;4.08;82.98;97443.06;5058515;28;20116;-77
2024/02/08 08:54:13;;;;;;;28.83;15.25;;;;;;;3.94;83.23;97426.75;5057975;28;20246;-76
2024/02/08 08:56:40;;;;;;;26.13;15.57;;;;;;;3.95;84.18;97424.91;5058470;28;20029;-76
2024/02/08 08:59:06;;;;;;;23.38;14.05;;;;;;;3.89;84.05;97421.38;5058474;28;20028;-76
2024/02/08 09:01:36;;;;;;;32.47;16.85;;;;;;;3.56;85.50;97410.84;5032742;28;20033;-77
2024/02/08 09:04:25;;;;;;;30.75;15.15;;;;;;;3.33;85.85;97406.50;5069972;28;20077;-76
2024/02/08 09:06:53;;;;;;;22.55;14.48;;;;;;;3.79;84.76;97402.78;5056458;28;20393;-75
2024/02/08 09:09:38;;;;;;;33.45;15.23;;;;;;;4.03;83.58;97409.47;5015130;28;20029;-77
2024/02/08 09:12:04;;;;;;;29.65;16.58;;;;;;;3.64;85.12;97413.09;5050292;28;20025;-76
2024/02/08 09:14:32;;;;;;;27.08;15.98;;;;;;;3.22;87.50;97412.63;5049836;28;20040;-76
2024/02/08 09:17:02;;;;;;;23.58;13.48;;;;;;;3.86;84.86;97413.16;5046029;28;20362;-76
2024/02/08 09:19:29;;;;;;;28.05;15.40;;;;;;;3.73;85.12;97419.56;5039962;28;20390;-76
2024/02/08 09:21:58;;;;;;;26.05;15.00;;;;;;;3.86;85.25;97424.53;5032213;28;20029;-76
2024/02/08 09:24:26;;;;;;;27.33;14.50;;;;;;;4.07;83.54;97425.63;5050980;28;20064;-76
2024/02/08 09:29:56;;;;;;;17.40;11.60;;;;;;;3.41;83.59;97387.63;5014994;28;20053;-78
2024/02/08 09:35:11;;;;;;;27.65;13.25;;;;;;;3.73;86.66;97398.47;5053593;28;20587;-78
2024/02/08 09:37:39;;;;;;;19.92;12.10;;;;;;;4.07;84.43;97402.66;5051062;28;20039;-76
2024/02/08 09:40:18;;;;;;;22.60;12.15;;;;;;;3.99;84.26;97399.63;5055472;28;20033;-76
2024/02/08 09:42:54;;;;;;;21.48;11.75;;;;;;;4.14;83.27;97403.28;5023223;28;20125;-76
2024/02/08 09:48:10;;;;;;;22.52;12.73;;;;;;;4.16;83.21;97392.47;5061489;28;20024;-75
2024/02/08 09:50:36;;;;;;;21.48;13.75;;;;;;;3.69;85.33;97379.66;5053605;28;20028;-76
2024/02/08 09:53:27;;;;;;;25.90;12.30;;;;;;;3.45;86.99;97372.16;5064344;28;20033;-76
2024/02/08 09:55:57;;;;;;;23.20;12.38;;;;;;;3.83;85.29;97374.03;5052886;28;20385;-76
2024/02/08 09:58:37;;;;;;;21.25;11.77;;;;;;;4.31;82.95;97369.72;5060841;28;20032;-76
2024/02/08 10:01:21;;;;;;;16.58;10.82;;;;;;;4.34;83.20;97360.53;5045696;28;20025;-76
2024/02/08 10:03:48;;;;;;;18.00;11.02;;;;;;;4.18;83.82;97367.44;5035461;28;20446;-76
2024/02/08 10:06:23;;;;;;;19.63;12.07;;;;;;;3.62;84.77;97368.47;5051925;28;20039;-76
2024/02/08 10:08:54;;;;;;;23.33;10.75;;;;;;;3.80;83.59;97346.28;5056914;28;20035;-76
2024/02/08 10:11:36;;;;;;;24.17;12.05;;;;;;;4.06;84.67;97343.00;5064702;28;20100;-76
2024/02/08 10:14:02;;;;;;;18.70;12.15;;;;;;;4.32;82.88;97344.13;5035380;28;20281;-76
2024/02/08 10:16:47;;;;;;;18.02;12.77;;;;;;;4.33;83.13;97337.78;5052698;28;20025;-76
2024/02/08 10:19:28;;;;;;;21.75;11.20;;;;;;;4.61;81.53;97342.09;5048094;28;20099;-76
2024/02/08 10:21:57;;;;;;;23.65;12.90;;;;;;;4.04;83.82;97342.41;5055399;28;20032;-76
2024/02/08 10:27:20;;;;;;;19.48;11.18;;;;;;;4.34;82.24;97332.28;5023573;28;20053;-76
2024/02/08 10:29:56;;;;;;;25.08;10.98;;;;;;;3.63;83.69;97329.69;5056315;28;20028;-76
2024/02/08 10:32:27;;;;;;;23.73;12.45;;;;;;;3.39;84.42;97329.06;5060699;28;20036;-76
2024/02/08 10:35:13;;;;;;;22.40;12.88;;;;;;;3.81;85.52;97332.06;5052218;28;20032;-77
2024/02/08 10:37:47;;;;;;;28.27;13.40;;;;;;;3.83;85.53;97316.81;5055085;28;20029;-76
2024/02/08 10:40:29;;;;;;;21.88;13.18;;;;;;;4.27;83.71;97325.56;5063090;28;20511;-76
2024/02/08 10:43:17;;;;;;;19.95;11.20;;;;;;;4.16;82.90;97324.66;5044825;28;20389;-76
2024/02/08 10:45:53;;;;;;;24.73;11.98;;;;;;;4.40;83.20;97304.06;5049214;28;20550;-75
2024/02/08 10:48:23;;;;;;;17.92;10.85;;;;;;;3.93;82.68;97314.31;5057288;28;20033;-77
2024/02/08 10:50:50;;;;;;;18.67;10.85;;;;;;;3.45;85.00;97308.88;5061401;28;20385;-76
2024/02/08 10:53:26;;;;;;;23.33;11.60;;;;;;;4.29;83.07;97286.50;5059988;28;20108;-76
2024/02/08 10:55:56;;;;;;;22.73;11.27;;;;;;;3.51;84.61;97269.13;5051618;28;20071;-76
2024/02/08 10:58:47;;;;;;;27.25;12.45;;;;;;;3.09;83.90;97282.97;5051069;28;20037;-76
2024/02/08 11:01:32;;;;;;;19.88;10.48;;;;;;;3.77;85.26;97279.00;5050842;28;20044;-76
2024/02/08 11:04:01;;;;;;;21.67;11.52;;;;;;;4.23;82.80;97269.81;5036823;28;20562;-76
2024/02/08 11:06:29;;;;;;;22.10;11.15;;;;;;;3.76;83.84;97255.47;5051092;28;20120;-76
2024/02/08 11:09:14;;;;;;;23.95;12.93;;;;;;;4.11;84.27;97253.28;5059319;28;20025;-76
2024/02/08 11:11:45;;;;;;;23.60;12.32;;;;;;;4.48;81.72;97248.94;5049113;28;20033;-76
2024/02/08 11:14:18;;;;;;;20.40;11.57;;;;;;;4.32;83.95;97255.13;5051136;28;20158;-76
2024/02/08 11:16:47;;;;;;;27.50;15.32;;;;;;;4.50;82.22;97251.34;5037706;28;20029;-76
2024/02/08 11:19:17;;;;;;;19.92;11.27;;;;;;;4.76;81.83;97245.25;5050878;28;20029;-76
2024/02/08 11:21:43;;;;;;;22.65;12.68;;;;;;;4.80;81.05;97241.09;5051317;28;20037;-77
2024/02/08 11:24:13;;;;;;;18.98;10.65;;;;;;;4.28;82.80;97227.59;5051301;28;20592;-76
2024/02/08 11:26:49;;;;;;;19.17;11.10;;;;;;;4.51;82.28;97222.06;5047673;28;20120;-77
2024/02/08 11:29:20;;;;;;;17.92;10.73;;;;;;;4.77;80.71;97220.44;5055572;28;20035;-76
2024/02/08 11:31:46;;;;;;;20.85;10.63;;;;;;;4.82;81.80;97230.25;5054197;28;20397;-77
2024/02/08 11:34:13;;;;;;;16.38;9.85;;;;;;;4.79;81.42;97214.88;5056598;28;20033;-77
2024/02/08 11:36:42;;;;;;;14.95;9.30;;;;;;;4.81;81.13;97221.53;5055044;28;20394;-76
2024/02/08 11:39:28;;;;;;;19.92;9.63;;;;;;;4.83;81.70;97208.84;5056700;28;20029;-76
2024/02/08 11:42:00;;;;;;;18.77;9.25;;;;;;;4.80;80.70;97200.66;5041203;28;20037;-76
2024/02/08 11:44:26;;;;;;;17.17;9.50;;;;;;;4.87;81.16;97196.72;5045136;28;20047;-76
2024/02/08 11:47:00;;;;;;;17.80;9.60;;;;;;;4.61;82.24;97194.91;5051276;28;20252;-76
2024/02/08 11:49:35;;;;;;;14.02;7.85;;;;;;;3.82;83.20;97201.75;5051267;28;20086;-77
2024/02/08 11:52:07;;;;;;;11.88;7.35;;;;;;;4.15;83.59;97198.94;5042514;28;20051;-77
2024/02/08 11:54:39;;;;;;;15.48;8.15;;;;;;;4.65;83.07;97201.31;5054578;28;20039;-77
2024/02/08 11:57:11;;;;;;;14.20;7.13;;;;;;;4.37;82.25;97197.06;5053223;28;20033;-77
2024/02/08 11:59:36;;;;;;;12.55;7.50;;;;;;;4.10;82.67;97192.84;5050847;28;20514;-77
2024/02/08 12:02:08;;;;;;;10.65;7.07;;;;;;;4.58;82.37;97190.16;5049037;28;20037;-77
2024/02/08 12:04:36;;;;;;;13.77;6.72;;;;;;;4.00;83.40;97187.44;5050253;28;20527;-76
2024/02/08 12:07:04;;;;;;;10.45;6.70;;;;;;;3.94;83.58;97177.84;5050043;28;20459;-76
2024/02/08 12:09:31;;;;;;;11.30;6.85;;;;;;;4.39;83.94;97163.28;5049575;28;20087;-76
2024/02/08 12:11:58;;;;;;;10.85;6.32;;;;;;;4.34;82.53;97170.38;5049431;28;20025;-77
2024/02/08 12:14:27;;;;;;;9.48;5.82;;;;;;;4.77;82.99;97158.84;5050034;28;20029;-76
2024/02/08 12:16:59;;;;;;;10.98;6.03;;;;;;;4.90;81.65;97155.78;5050270;28;20124;-76
2024/02/08 12:19:27;;;;;;;11.43;5.97;;;;;;;4.57;83.22;97147.06;5056079;28;20025;-77
2024/02/08 12:22:04;;;;;;;11.95;7.50;;;;;;;4.74;82.38;97141.66;5049887;28;20414;-76
2024/02/08 12:24:31;;;;;;;7.28;5.60;;;;;;;4.87;81.87;97145.72;5035815;28;20092;-77
2024/02/08 12:27:07;;;;;;;10.88;5.38;;;;;;;4.69;81.73;97140.81;5058394;28;20029;-76
2024/02/08 12:29:35;;;;;;;8.82;5.35;;;;;;;4.83;81.42;97145.41;5050099;28;20086;-77
2024/02/08 12:32:01;;;;;;;11.38;6.80;;;;;;;4.50;82.94;97135.91;5050095;28;20036;-76
2024/02/08 12:34:32;;;;;;;8.93;5.85;;;;;;;4.63;82.48;97129.41;5050280;28;20103;-76
2024/02/08 12:37:06;;;;;;;11.25;7.65;;;;;;;4.14;83.57;97127.94;5031585;28;20116;-76
2024/02/08 12:39:38;;;;;;;17.40;8.25;;;;;;;3.94;83.76;97117.97;5050221;28;20029;-76
2024/02/08 12:42:05;;;;;;;13.57;7.40;;;;;;;3.26;86.12;97131.66;5069788;28;20082;-76
2024/02/08 12:44:34;;;;;;;14.07;8.63;;;;;;;3.33;86.94;97119.09;5051738;28;20421;-76
2024/02/08 12:47:01;;;;;;;17.70;8.98;;;;;;;4.07;87.02;97132.59;5049765;28;20380;-76
2024/02/08 12:49:27;;;;;;;18.23;9.50;;;;;;;3.84;85.06;97131.06;5049637;28;20211;-76
2024/02/08 12:51:59;;;;;;;18.40;9.60;;;;;;;3.65;85.46;97137.69;5057821;28;20118;-76
2024/02/08 12:54:26;;;;;;;17.02;10.05;;;;;;;3.40;87.45;97125.00;5049967;28;20082;-77
2024/02/08 12:57:08;;;;;;;21.50;10.85;;;;;;;3.10;88.51;97135.16;5053026;28;20043;-76
2024/02/08 12:59:38;;;;;;;23.42;12.10;;;;;;;2.91;90.07;97116.16;5050510;28;20032;-77
2024/02/08 13:02:12;;;;;;;23.70;11.40;;;;;;;2.89;91.23;97122.72;5049615;28;20037;-76
2024/02/08 13:04:43;;;;;;;24.30;11.10;;;;;;;2.85;90.60;97118.97;5049338;28;20032;-76
2024/02/08 13:07:13;;;;;;;25.35;11.60;;;;;;;2.61;92.41;97112.28;5054766;28;20390;-76
2024/02/08 13:09:39;;;;;;;23.65;12.20;;;;;;;3.10;91.91;97097.44;5048958;28;20032;-76
2024/02/08 13:12:17;;;;;;;21.42;11.23;;;;;;;3.47;90.12;97109.78;5047361;28;20041;-76
2024/02/08 13:14:48;;;;;;;20.50;11.25;;;;;;;3.12;90.66;97090.91;5052063;28;20033;-77
2024/02/08 13:17:23;;;;;;;21.58;10.88;;;;;;;3.46;91.01;97091.56;5020599;28;20063;-77
2024/02/08 13:19:56;;;;;;;28.27;14.38;;;;;;;2.76;91.27;97080.91;5057750;28;20037;-76
2024/02/08 13:22:24;;;;;;;28.77;12.27;;;;;;;2.55;93.60;97093.00;5050924;28;20091;-75
2024/02/08 13:24:53;;;;;;;20.10;10.98;;;;;;;2.70;94.68;97092.41;5049439;28;20025;-77
2024/02/08 13:27:24;;;;;;;31.17;14.68;;;;;;;2.68;93.64;97074.22;5051535;28;20033;-77
2024/02/08 13:29:52;;;;;;;24.05;11.63;;;;;;;2.65;94.62;97079.97;5053322;28;20039;-76
2024/02/08 13:32:19;;;;;;;21.65;12.55;;;;;;;2.43;93.50;97065.13;5051927;28;20109;-76
2024/02/08 13:34:44;;;;;;;27.27;13.18;;;;;;;2.11;95.67;97076.22;5053351;28;20053;-75
2024/02/08 13:37:15;;;;;;;25.45;12.70;;;;;;;2.36;95.99;97060.03;5053332;28;20091;-76
2024/02/08 13:39:44;;;;;;;29.88;14.50;;;;;;;2.20;95.63;97063.47;5035943;28;20095;-76
2024/02/08 13:42:11;;;;;;;30.27;12.95;;;;;;;2.41;96.09;97057.47;5035666;28;20036;-76
2024/02/08 13:44:36;;;;;;;24.17;14.38;;;;;;;2.39;96.78;97053.47;5052529;28;20029;-76